createdAt,value
2018-12-04T00:01:58.878Z,2.30
2018-12-04T00:04:26.331Z,2.83
2018-12-04T00:06:53.865Z,1.17
2018-12-04T00:09:21.391Z,3.43
2018-12-04T00:11:48.961Z,2.00
2018-12-04T00:14:16.499Z,5.43
2018-12-04T00:16:43.988Z,4.23
2018-12-04T00:19:11.525Z,2.70
2018-12-04T00:21:39.060Z,2.83
2018-12-04T00:24:06.720Z,1.70
2018-12-04T00:26:34.216Z,0.70
2018-12-04T00:29:01.777Z,1.80
2018-12-04T00:31:29.269Z,1.13
2018-12-04T00:33:56.807Z,1.77
2018-12-04T00:36:24.345Z,1.43
2018-12-04T00:38:51.819Z,1.63
2018-12-04T00:41:19.317Z,0.77
2018-12-04T00:43:46.879Z,3.00
2018-12-04T00:46:14.474Z,3.80
2018-12-04T00:48:41.996Z,1.93
2018-12-04T00:51:09.498Z,0.77
2018-12-04T00:53:37.050Z,0.30
2018-12-04T00:56:04.621Z,1.70
2018-12-04T00:58:32.131Z,1.50
2018-12-04T01:00:59.681Z,0.87
2018-12-04T01:03:27.201Z,0.40
2018-12-04T01:05:54.779Z,0.90
2018-12-04T01:08:22.477Z,2.17
2018-12-04T01:10:50.036Z,2.50
2018-12-04T01:13:17.571Z,2.43
2018-12-04T01:15:45.054Z,1.23
2018-12-04T01:18:12.581Z,0.97
2018-12-04T01:20:40.140Z,0.97
2018-12-04T01:23:07.831Z,1.07
2018-12-04T01:25:35.683Z,1.63
2018-12-04T01:28:03.650Z,1.63
2018-12-04T01:30:31.212Z,1.53
2018-12-04T01:32:59.760Z,0.67
2018-12-04T01:35:27.309Z,1.80
2018-12-04T01:37:54.840Z,0.80
2018-12-04T01:40:22.628Z,0.97
2018-12-04T01:42:50.115Z,2.13
2018-12-04T01:45:17.671Z,0.77
2018-12-04T01:47:45.230Z,0.30
2018-12-04T01:50:12.782Z,1.90
2018-12-04T01:52:40.356Z,6.60
2018-12-04T01:55:07.874Z,1.77
2018-12-04T01:57:35.528Z,2.00
2018-12-04T02:00:03.575Z,2.50
2018-12-04T02:02:33.221Z,0.87
2018-12-04T02:05:00.747Z,2.67
2018-12-04T02:07:28.457Z,2.13
2018-12-04T02:09:59.940Z,2.27
2018-12-04T02:12:27.400Z,1.43
2018-12-04T02:14:56.016Z,4.93
2018-12-04T02:17:23.471Z,2.87
2018-12-04T02:19:50.996Z,5.00
2018-12-04T02:22:18.501Z,2.60
2018-12-04T02:24:46.082Z,1.67
2018-12-04T02:27:13.617Z,4.73
2018-12-04T02:29:41.157Z,4.07
2018-12-04T02:32:08.711Z,3.00
2018-12-04T02:34:36.270Z,4.37
2018-12-04T02:37:04.044Z,2.77
2018-12-04T02:39:31.544Z,2.97
2018-12-04T02:41:59.119Z,3.00
2018-12-04T02:44:26.618Z,1.73
2018-12-04T02:46:54.211Z,1.07
2018-12-04T02:49:21.853Z,2.27
2018-12-04T02:51:49.365Z,2.43
2018-12-04T02:54:16.871Z,5.40
2018-12-04T02:56:44.409Z,6.50
2018-12-04T02:59:12.068Z,6.33
2018-12-04T03:01:39.646Z,2.30
2018-12-04T03:04:07.182Z,3.27
2018-12-04T03:06:34.716Z,6.63
2018-12-04T03:09:02.622Z,1.60
2018-12-04T03:11:32.152Z,2.63
2018-12-04T03:13:59.789Z,3.27
2018-12-04T03:16:27.297Z,3.03
2018-12-04T03:18:54.824Z,3.70
2018-12-04T03:21:22.341Z,1.10
2018-12-04T03:23:49.807Z,6.33
2018-12-04T03:26:17.310Z,4.30
2018-12-04T03:28:44.895Z,2.90
2018-12-04T03:31:12.376Z,2.63
2018-12-04T03:33:40.770Z,3.43
2018-12-04T03:36:08.358Z,6.50
2018-12-04T03:38:35.970Z,1.97
2018-12-04T03:41:03.658Z,4.17
2018-12-04T03:43:31.509Z,3.23
2018-12-04T03:45:59.159Z,3.60
2018-12-04T03:48:26.689Z,4.10
2018-12-04T03:50:54.234Z,4.43
2018-12-04T03:53:21.793Z,4.20
2018-12-04T03:55:49.312Z,1.53
2018-12-04T03:58:17.675Z,2.87
2018-12-04T04:00:45.302Z,5.03
2018-12-04T04:03:13.006Z,1.70
2018-12-04T04:05:40.662Z,1.20
2018-12-04T04:08:08.212Z,2.20
2018-12-04T04:10:35.741Z,3.80
2018-12-04T04:13:03.410Z,4.00
2018-12-04T04:15:31.328Z,4.77
2018-12-04T04:17:59.014Z,5.83
2018-12-04T04:20:26.525Z,2.90
2018-12-04T04:22:54.060Z,2.17
2018-12-04T04:25:21.547Z,5.37
2018-12-04T04:27:49.157Z,4.10
2018-12-04T04:30:16.665Z,3.60
2018-12-04T04:32:44.223Z,3.17
2018-12-04T04:35:13.783Z,2.63
2018-12-04T04:37:41.381Z,2.13
2018-12-04T04:40:08.966Z,4.67
2018-12-04T04:42:36.515Z,4.00
2018-12-04T04:45:04.924Z,4.87
2018-12-04T04:47:32.467Z,5.90
2018-12-04T04:50:00.027Z,3.60
2018-12-04T04:52:27.585Z,2.23
2018-12-04T04:54:55.238Z,2.33
2018-12-04T04:57:22.792Z,3.80
2018-12-04T04:59:50.417Z,4.43
2018-12-04T05:02:18.041Z,6.00
2018-12-04T05:04:45.675Z,2.20
2018-12-04T05:07:13.251Z,5.90
2018-12-04T05:09:40.800Z,2.30
2018-12-04T05:12:08.374Z,5.13
2018-12-04T05:14:35.929Z,6.60
2018-12-04T05:17:03.633Z,4.23
2018-12-04T05:19:31.181Z,3.53
2018-12-04T05:21:58.763Z,2.70
2018-12-04T05:24:26.300Z,4.17
2018-12-04T05:26:53.909Z,4.13
2018-12-04T05:29:21.391Z,2.57
2018-12-04T05:31:48.905Z,8.60
2018-12-04T05:34:16.522Z,3.97
2018-12-04T05:36:44.050Z,3.77
2018-12-04T05:39:11.655Z,2.43
2018-12-04T05:41:39.211Z,6.03
2018-12-04T05:44:06.675Z,6.97
2018-12-04T05:46:34.256Z,5.90
2018-12-04T05:49:01.871Z,1.77
2018-12-04T05:51:29.400Z,0.77
2018-12-04T05:53:56.945Z,2.60
2018-12-04T05:56:24.465Z,1.33
2018-12-04T05:58:52.222Z,1.40
2018-12-04T06:01:19.751Z,1.97
2018-12-04T06:03:47.330Z,1.50
2018-12-04T06:06:14.942Z,2.47
2018-12-04T06:08:42.597Z,0.60
2018-12-04T06:11:10.274Z,0.70
2018-12-04T06:13:37.867Z,2.80
2018-12-04T06:16:05.346Z,2.17
2018-12-04T06:18:32.927Z,2.00
2018-12-04T06:21:00.478Z,1.70
2018-12-04T06:23:28.029Z,0.47
2018-12-04T06:25:55.571Z,0.77
2018-12-04T06:28:23.103Z,0.60
2018-12-04T06:30:50.660Z,0.87
2018-12-04T06:33:18.234Z,1.30
2018-12-04T06:35:45.789Z,0.83
2018-12-04T06:38:13.328Z,1.80
2018-12-04T06:40:40.891Z,3.63
2018-12-04T06:43:08.481Z,1.03
2018-12-04T06:45:36.024Z,1.03
2018-12-04T06:48:03.610Z,1.07
2018-12-04T06:50:31.161Z,1.17
2018-12-04T06:52:58.727Z,1.50
2018-12-04T06:55:26.258Z,1.90
2018-12-04T06:57:56.839Z,0.70
2018-12-04T07:00:24.671Z,0.90
2018-12-04T07:02:52.273Z,1.70
2018-12-04T07:05:19.980Z,2.87
2018-12-04T07:07:47.727Z,1.17
2018-12-04T07:10:15.265Z,1.03
2018-12-04T07:12:42.811Z,3.30
2018-12-04T07:15:10.463Z,2.07
2018-12-04T07:17:37.973Z,0.73
2018-12-04T07:20:06.790Z,2.63
2018-12-04T07:22:34.966Z,1.33
2018-12-04T07:25:02.910Z,1.30
2018-12-04T07:27:30.461Z,1.10
2018-12-04T07:29:58.138Z,1.07
2018-12-04T07:32:25.969Z,4.30
2018-12-04T07:34:53.691Z,0.90
2018-12-04T07:37:21.279Z,1.10
2018-12-04T07:39:48.874Z,1.60
2018-12-04T07:42:16.424Z,2.50
2018-12-04T07:44:43.997Z,1.37
2018-12-04T07:47:11.527Z,3.17
2018-12-04T07:49:39.053Z,2.43
2018-12-04T07:52:06.661Z,5.50
2018-12-04T07:54:34.204Z,4.67
2018-12-04T07:57:01.707Z,3.63
2018-12-04T07:59:29.183Z,3.03
2018-12-04T08:01:56.749Z,0.93
2018-12-04T08:04:24.303Z,2.43
2018-12-04T08:06:51.847Z,2.97
2018-12-04T08:09:19.413Z,1.70
2018-12-04T08:11:46.931Z,2.77
2018-12-04T08:14:14.403Z,4.10
2018-12-04T08:16:41.932Z,2.40
2018-12-04T08:19:09.460Z,2.10
2018-12-04T08:21:37.089Z,3.30
2018-12-04T08:24:04.715Z,2.53
2018-12-04T08:26:33.023Z,3.00
2018-12-04T08:29:00.643Z,2.17
2018-12-04T08:31:28.242Z,2.30
2018-12-04T08:33:55.729Z,1.40
2018-12-04T08:36:23.284Z,4.73
2018-12-04T08:38:50.819Z,2.37
2018-12-04T08:41:18.463Z,4.10
2018-12-04T08:43:45.986Z,4.57
2018-12-04T08:46:13.566Z,2.00
2018-12-04T08:48:41.102Z,4.37
2018-12-04T08:51:08.649Z,3.90
2018-12-04T08:53:36.257Z,18.60
2018-12-04T08:56:03.894Z,1.67
2018-12-04T08:58:31.469Z,3.77
2018-12-04T09:00:59.029Z,25.87
2018-12-04T09:03:26.535Z,3.50
2018-12-04T09:05:54.098Z,2.73
2018-12-04T09:08:21.866Z,1.07
2018-12-04T09:10:49.438Z,2.30
2018-12-04T09:13:16.983Z,2.00
2018-12-04T09:15:44.595Z,5.03
2018-12-04T09:18:12.162Z,2.63
2018-12-04T09:20:39.883Z,4.20
2018-12-04T09:23:07.541Z,8.97
2018-12-04T09:25:35.143Z,2.83
2018-12-04T09:28:02.876Z,2.00
2018-12-04T09:30:30.599Z,3.73
2018-12-04T09:32:58.329Z,2.67
2018-12-04T09:35:25.847Z,2.23
2018-12-04T09:37:53.499Z,4.50
2018-12-04T09:40:21.195Z,1.87
2018-12-04T09:42:48.846Z,2.50
2018-12-04T09:45:16.744Z,1.73
2018-12-04T09:47:45.518Z,4.17
2018-12-04T09:50:13.114Z,2.87
2018-12-04T09:52:40.670Z,6.70
2018-12-04T09:55:08.402Z,4.70
2018-12-04T09:57:35.953Z,1.97
2018-12-04T10:00:04.911Z,12.00
2018-12-04T10:02:32.600Z,8.10
2018-12-04T10:05:00.157Z,8.50
2018-12-04T10:07:27.736Z,4.40
2018-12-04T10:10:00.466Z,5.03
2018-12-04T10:12:24.845Z,3.27
2018-12-04T10:14:52.491Z,2.03
2018-12-04T10:17:20.057Z,1.90
2018-12-04T11:24:51.962Z,5.73
2018-12-04T11:27:19.561Z,59.60
2018-12-04T11:29:47.129Z,9.90
2018-12-04T11:32:14.714Z,3.53
2018-12-04T11:34:42.266Z,16.87
2018-12-04T11:37:09.878Z,4.60
2018-12-04T11:39:37.464Z,2.50
2018-12-04T11:42:05.170Z,10.93
2018-12-04T11:44:32.985Z,29.40
2018-12-04T11:47:00.739Z,9.97
2018-12-04T11:49:28.319Z,6.17
2018-12-04T11:51:55.879Z,4.27
2018-12-04T11:54:23.390Z,2.53
2018-12-04T11:56:50.973Z,4.17
2018-12-04T11:59:18.540Z,4.57
2018-12-04T12:01:46.126Z,4.83
2018-12-04T12:04:13.656Z,3.87
2018-12-04T12:06:41.199Z,3.77
2018-12-04T12:09:09.548Z,3.83
2018-12-04T12:11:37.279Z,4.93
2018-12-04T12:14:04.974Z,3.87
2018-12-04T12:16:32.523Z,2.53
2018-12-04T12:19:00.126Z,2.90
2018-12-04T12:21:27.829Z,5.70
2018-12-04T12:23:55.401Z,3.10
2018-12-04T12:26:22.967Z,2.40
2018-12-04T12:28:50.719Z,3.40
2018-12-04T12:31:18.397Z,3.93
2018-12-04T12:33:45.951Z,5.13
2018-12-04T12:36:13.526Z,4.90
2018-12-04T12:38:41.120Z,3.03
2018-12-04T12:41:08.739Z,6.60
2018-12-04T12:43:36.296Z,3.00
2018-12-04T12:46:03.894Z,3.27
2018-12-04T12:48:31.455Z,5.10
2018-12-04T12:50:59.485Z,3.27
2018-12-04T12:53:27.078Z,4.20
2018-12-04T12:55:54.603Z,2.67
2018-12-04T12:58:22.134Z,3.27
2018-12-04T13:00:49.727Z,3.60
2018-12-04T13:03:17.272Z,4.67
2018-12-04T13:05:44.833Z,4.73
2018-12-04T13:08:19.250Z,2.97
2018-12-04T13:10:46.888Z,3.33
2018-12-04T13:13:14.504Z,4.53
2018-12-04T13:15:42.083Z,3.87
2018-12-04T13:18:09.690Z,7.37
2018-12-04T13:20:37.514Z,4.53
2018-12-04T13:23:05.064Z,4.57
2018-12-04T13:25:32.728Z,2.70
2018-12-04T13:28:00.380Z,3.97
2018-12-04T13:30:27.987Z,14.13
2018-12-04T13:32:55.779Z,7.17
2018-12-04T13:35:23.349Z,5.47
2018-12-04T13:37:50.924Z,3.00
2018-12-04T13:40:18.520Z,6.87
2018-12-04T13:42:46.115Z,6.47
2018-12-04T13:45:13.744Z,5.00
2018-12-04T13:47:41.926Z,4.23
2018-12-04T13:50:09.675Z,7.83
2018-12-04T13:52:37.570Z,6.87
2018-12-04T13:55:05.424Z,7.00
2018-12-04T13:57:33.063Z,4.67
2018-12-04T14:00:00.685Z,6.70
2018-12-04T14:02:28.281Z,3.80
2018-12-04T14:04:56.043Z,5.57
2018-12-04T14:07:23.753Z,7.43
2018-12-04T14:09:51.376Z,5.73
2018-12-04T14:12:18.916Z,4.60
2018-12-04T14:14:46.527Z,6.20
2018-12-04T14:17:14.200Z,4.80
2018-12-04T14:19:41.864Z,5.63
2018-12-04T14:22:09.391Z,6.77
2018-12-04T14:24:37.207Z,6.07
2018-12-04T14:27:04.930Z,8.73
2018-12-04T14:29:32.648Z,3.80
2018-12-04T14:32:00.228Z,5.10
2018-12-04T14:34:27.742Z,3.87
2018-12-04T14:36:55.318Z,3.93
2018-12-04T14:39:22.895Z,3.43
2018-12-04T14:41:50.789Z,4.13
2018-12-04T14:44:18.449Z,7.93
2018-12-04T14:46:46.105Z,7.67
2018-12-04T14:49:13.733Z,11.60
2018-12-04T14:51:41.414Z,9.57
2018-12-04T14:54:09.047Z,9.37
2018-12-04T14:56:36.684Z,5.27
2018-12-04T14:59:04.395Z,8.60
2018-12-04T15:01:31.964Z,3.23
2018-12-04T15:03:59.539Z,4.87
2018-12-04T15:06:27.268Z,7.63
2018-12-04T15:08:55.119Z,5.67
2018-12-04T15:11:22.932Z,4.67
2018-12-04T15:13:50.664Z,4.63
2018-12-04T15:16:18.339Z,3.40
2018-12-04T15:18:45.998Z,3.77
2018-12-04T15:21:13.703Z,4.87
2018-12-04T15:23:41.308Z,4.83
2018-12-04T15:26:09.078Z,6.17
2018-12-04T15:28:36.757Z,42.20
2018-12-04T15:31:04.466Z,28.03
2018-12-04T15:33:32.052Z,12.13
2018-12-04T15:35:59.717Z,5.60
2018-12-04T15:38:27.475Z,6.57
2018-12-04T15:40:55.146Z,13.77
2018-12-04T15:43:22.984Z,10.90
2018-12-04T15:45:50.601Z,9.83
2018-12-04T15:48:18.195Z,9.50
2018-12-04T15:50:45.901Z,10.90
2018-12-04T15:53:13.655Z,12.70
2018-12-04T15:55:41.285Z,13.13
2018-12-04T15:58:08.845Z,12.27
2018-12-04T16:00:36.358Z,23.63
2018-12-04T16:03:04.046Z,12.53
2018-12-04T16:05:50.493Z,11.23
2018-12-04T16:08:18.097Z,6.47
2018-12-04T16:10:45.588Z,9.10
2018-12-04T16:13:13.137Z,9.97
2018-12-04T16:15:40.718Z,20.27
2018-12-04T16:18:08.253Z,14.23
2018-12-04T16:20:35.952Z,6.73
2018-12-04T16:23:03.473Z,16.03
2018-12-04T16:25:31.141Z,46.43
2018-12-04T16:27:58.706Z,19.97
2018-12-04T16:30:26.243Z,10.10
2018-12-04T16:32:53.788Z,13.03
2018-12-04T16:35:21.293Z,10.20
2018-12-04T16:37:48.912Z,9.43
2018-12-04T16:40:16.479Z,6.23
2018-12-04T16:42:44.014Z,9.03
2018-12-04T16:45:11.736Z,18.50
2018-12-04T16:47:39.302Z,10.07
2018-12-04T16:50:07.062Z,7.60
2018-12-04T16:52:34.645Z,10.20
2018-12-04T16:55:02.330Z,9.07
2018-12-04T16:57:29.951Z,9.90
2018-12-04T16:59:57.556Z,15.03
2018-12-04T17:02:25.279Z,17.90
2018-12-04T17:04:52.859Z,19.83
2018-12-04T17:07:20.450Z,17.20
2018-12-04T17:09:48.061Z,12.27
2018-12-04T17:12:15.579Z,14.63
2018-12-04T17:14:43.154Z,14.03
2018-12-04T17:17:10.731Z,13.63
2018-12-04T17:19:38.370Z,15.13
2018-12-04T17:22:05.977Z,22.10
2018-12-04T17:24:33.575Z,22.03
2018-12-04T17:27:01.175Z,21.53
2018-12-04T17:29:28.713Z,20.40
2018-12-04T17:31:56.253Z,23.40
2018-12-04T17:34:23.888Z,22.77
2018-12-04T17:36:51.575Z,23.30
2018-12-04T17:39:19.168Z,19.10
2018-12-04T17:41:46.892Z,17.83
2018-12-04T17:44:14.482Z,16.13
2018-12-04T17:46:42.069Z,17.47
2018-12-04T17:49:09.797Z,18.63
2018-12-04T17:51:37.383Z,14.50
2018-12-04T17:54:05.057Z,13.53
2018-12-04T17:56:34.647Z,14.43
2018-12-04T17:59:02.512Z,15.77
2018-12-04T18:01:30.246Z,21.80
2018-12-04T18:03:59.829Z,18.67
2018-12-04T18:06:27.531Z,18.07
2018-12-04T18:08:55.056Z,17.97
2018-12-04T18:11:24.790Z,18.43
2018-12-04T18:13:52.331Z,16.87
2018-12-04T18:16:26.779Z,20.13
2018-12-04T18:18:54.474Z,25.30
2018-12-04T18:21:22.154Z,18.50
2018-12-04T18:23:49.871Z,18.83
2018-12-04T18:26:17.475Z,16.93
2018-12-04T18:28:45.185Z,16.30
2018-12-04T18:31:12.770Z,21.40
2018-12-04T18:33:40.281Z,18.50
2018-12-04T18:36:07.883Z,15.47
2018-12-04T18:38:35.424Z,18.20
2018-12-04T18:41:03.089Z,17.27
2018-12-04T18:43:30.996Z,20.27
2018-12-04T18:45:58.607Z,20.37
2018-12-04T18:48:26.230Z,18.43
2018-12-04T18:50:53.917Z,22.17
2018-12-04T18:53:21.626Z,93.57
2018-12-04T18:55:49.251Z,19.03
2018-12-04T18:58:16.956Z,26.23
2018-12-04T19:00:47.435Z,23.10
2018-12-04T19:03:15.024Z,23.37
2018-12-04T19:05:42.563Z,19.33
2018-12-04T19:08:10.809Z,15.07
2018-12-04T19:10:38.339Z,18.37
2018-12-04T19:13:05.899Z,18.67
2018-12-04T19:15:33.606Z,16.10
2018-12-04T19:18:01.185Z,15.63
2018-12-04T19:20:28.704Z,19.17
2018-12-04T19:22:56.535Z,21.07
2018-12-04T19:25:24.192Z,20.73
2018-12-04T19:27:52.727Z,23.07
2018-12-04T19:30:20.279Z,25.47
2018-12-04T19:32:47.855Z,42.73
2018-12-04T19:35:15.678Z,23.27
2018-12-04T19:37:43.292Z,25.23
2018-12-04T19:40:11.416Z,22.07
2018-12-04T19:42:43.068Z,22.40
2018-12-04T19:45:10.734Z,21.70
2018-12-04T19:47:38.549Z,22.13
2018-12-04T19:50:07.327Z,35.90
2018-12-04T19:52:34.911Z,61.10
2018-12-04T19:55:02.604Z,43.20
2018-12-04T19:57:30.266Z,33.60
2018-12-04T19:59:57.835Z,27.97
2018-12-04T20:02:25.371Z,25.97
2018-12-04T20:04:53.081Z,24.50
2018-12-04T20:07:20.751Z,24.83
2018-12-04T20:09:48.364Z,22.93
2018-12-04T20:12:15.928Z,24.53
2018-12-04T20:14:43.669Z,25.93
2018-12-04T20:17:11.337Z,27.90
2018-12-04T20:19:38.902Z,27.60
2018-12-04T20:22:06.493Z,26.73
2018-12-04T20:24:34.252Z,28.20
2018-12-04T20:27:01.798Z,30.07
2018-12-04T20:29:32.447Z,22.93
2018-12-04T20:32:00.083Z,25.10
2018-12-04T20:35:01.891Z,25.23
2018-12-04T20:37:34.884Z,20.23
2018-12-04T20:40:04.929Z,30.20
2018-12-04T20:42:32.805Z,26.90
2018-12-04T20:45:02.085Z,29.67
2018-12-04T20:47:30.733Z,27.57
2018-12-04T20:49:59.529Z,24.23
2018-12-04T20:52:27.539Z,23.13
2018-12-04T20:58:15.387Z,29.03
2018-12-04T21:00:43.524Z,22.83
2018-12-04T21:03:11.590Z,21.27
2018-12-04T21:05:42.392Z,22.83
2018-12-04T21:08:10.581Z,22.67
2018-12-04T21:10:39.691Z,30.63
2018-12-04T21:13:14.306Z,34.37
2018-12-04T21:15:38.122Z,24.70
2018-12-04T21:18:06.320Z,25.50
2018-12-04T21:20:34.402Z,23.50
2018-12-04T21:23:03.715Z,27.73
2018-12-04T21:25:31.702Z,29.53
2018-12-04T21:28:05.926Z,30.70
2018-12-04T21:30:40.279Z,27.30
2018-12-04T21:33:13.910Z,31.07
2018-12-04T21:35:47.522Z,26.53
2018-12-04T21:38:21.164Z,29.13
2018-12-04T21:40:54.699Z,27.10
2018-12-04T21:43:28.660Z,25.27
2018-12-04T21:46:02.361Z,34.77
2018-12-04T21:48:30.407Z,26.83
2018-12-04T21:50:58.528Z,25.60
2018-12-04T21:53:26.425Z,23.23
2018-12-04T21:55:54.499Z,22.33
2018-12-04T21:58:22.551Z,22.50
2018-12-04T22:00:50.922Z,20.10
2018-12-04T22:03:19.054Z,21.03
2018-12-04T22:05:47.134Z,20.00
2018-12-04T22:08:15.179Z,23.90
2018-12-04T22:10:46.082Z,24.77
2018-12-04T22:13:14.077Z,21.77
2018-12-04T22:15:42.131Z,18.70
2018-12-04T22:18:11.739Z,16.87
2018-12-04T22:20:39.953Z,18.10
2018-12-04T22:23:07.997Z,18.67
2018-12-04T22:25:36.140Z,18.97
2018-12-04T22:28:04.266Z,18.33
2018-12-04T22:30:32.276Z,19.13
2018-12-04T22:33:00.342Z,17.57
2018-12-04T22:35:28.328Z,17.83
2018-12-04T22:37:56.348Z,18.43
2018-12-04T22:40:24.387Z,21.00
2018-12-04T22:42:52.431Z,20.57
2018-12-04T22:45:26.146Z,21.20
2018-12-04T22:47:54.941Z,20.03
2018-12-04T22:50:22.960Z,14.47
2018-12-04T22:52:50.983Z,17.77
2018-12-04T22:55:18.976Z,16.23
2018-12-04T22:57:47.082Z,17.13
2018-12-04T23:00:33.729Z,21.00
2018-12-04T23:03:03.830Z,19.67
2018-12-04T23:05:31.923Z,21.83
2018-12-04T23:08:00.025Z,19.27
2018-12-04T23:10:28.705Z,17.10
2018-12-04T23:12:56.236Z,21.47
2018-12-04T23:15:23.810Z,17.83
2018-12-04T23:17:51.385Z,21.60
2018-12-04T23:20:18.957Z,20.17
2018-12-04T23:22:46.457Z,20.70
2018-12-04T23:25:13.965Z,22.60
2018-12-04T23:27:41.551Z,20.70
2018-12-04T23:30:09.366Z,22.77
2018-12-04T23:32:36.973Z,18.27
2018-12-04T23:35:04.854Z,19.17
2018-12-04T23:37:32.397Z,19.83
2018-12-04T23:39:59.945Z,18.93
2018-12-04T23:42:27.472Z,21.93
2018-12-04T23:44:55.124Z,18.50
2018-12-04T23:47:23.550Z,20.27
2018-12-04T23:49:51.227Z,17.03
2018-12-04T23:52:18.841Z,18.70
2018-12-04T23:54:46.513Z,16.17
2018-12-04T23:57:14.066Z,19.30
2018-12-04T23:59:41.587Z,20.23
